Cheyenne Wells, Colorado
Current Conditions -  °F | °C
As of 11:53 PM on Friday 31 Oct 2014 (Local Time) from KITR Reporting Station
Clear Clear  
Wind Chill: 24°   Ceiling: Unl
Heat Index: 35°   Visibility: 10mi
Dew Point: 20°   Wind: 22mph
Humidity: 54%   Direction: 160°SSE
Pressure: 30.13"   Gusts: 32mph
Location:  38.82°N, 102.35°W
Report Text: KITR 010553Z AUTO 16019G28KT 10SM CLR 02/M07 A3013 RMK AO2 PK WND 17029/0536 SLP205 T00171067 10061 20017 58021
Loading
Personal Weather Stations






























Interactive Weather Map
Tropical Storm Tracking
New forecast layout! Learn more

10-Day Weather Forecast

Advertisements
Track Severe Weather on mobile